Terminal Aerodrome Forecast
Issued by NWS Duluth, MN

Home | Current Version | Previous Version | Text Only | Print | Product List | Glossary On
Versions: 1 2 3 4 5 6 7 8 9 10 11 12 13 14 15 16 17 18 19 20 21 22 23 24
000
FTUS43 KDLH 270500
TAFINL
TAF
KINL 270524Z 2706/2806 33006KT P6SM OVC021
     FM270900 VRB02KT P6SM OVC012
     FM271700 25007KT P6SM BKN022 OVC050
     FM280000 27006KT 6SM -SN OVC018
      TEMPO 2803/2806 3SM -SN OVC015=

USA.gov is the U.S. government's official web portal to all federal, state and local government web resources and services.